createdAt,value
2018-09-03T00:00:53.312Z,95.16
2018-09-03T00:03:21.756Z,94.90
2018-09-03T00:05:50.267Z,94.68
2018-09-03T00:08:18.773Z,94.41
2018-09-03T00:10:47.364Z,93.53
2018-09-03T00:13:15.892Z,93.62
2018-09-03T00:15:44.341Z,93.87
2018-09-03T00:18:12.827Z,93.65
2018-09-03T00:20:41.273Z,93.69
2018-09-03T00:23:09.684Z,94.73
2018-09-03T00:25:38.176Z,94.04
2018-09-03T00:28:06.649Z,94.01
2018-09-03T00:30:35.034Z,94.64
2018-09-03T00:33:08.746Z,94.44
2018-09-03T00:35:42.564Z,94.72
2018-09-03T00:38:16.397Z,94.39
2018-09-03T00:40:50.069Z,94.58
2018-09-03T00:43:24.024Z,94.38
2018-09-03T00:45:57.769Z,93.93
2018-09-03T00:48:26.310Z,93.39
2018-09-03T00:50:55.022Z,93.23
2018-09-03T00:53:23.588Z,92.71
2018-09-03T00:55:52.021Z,93.33
2018-09-03T00:58:20.540Z,93.35
2018-09-03T01:00:49.972Z,93.41
2018-09-03T01:03:19.064Z,93.67
2018-09-03T01:05:48.440Z,94.08
2018-09-03T01:08:17.160Z,94.49
2018-09-03T01:10:45.771Z,94.91
2018-09-03T01:13:14.350Z,94.30
2018-09-03T01:15:43.019Z,94.29
2018-09-03T01:18:11.519Z,94.46
2018-09-03T01:20:39.952Z,94.70
2018-09-03T01:23:08.370Z,94.86
2018-09-03T01:25:36.828Z,94.90
2018-09-03T01:28:05.280Z,94.90
2018-09-03T01:30:33.782Z,94.70
2018-09-03T01:33:02.275Z,94.81
2018-09-03T01:35:30.778Z,94.51
2018-09-03T01:37:59.202Z,94.81
2018-09-03T01:40:27.582Z,94.98
2018-09-03T01:42:56.061Z,94.43
2018-09-03T01:45:24.592Z,94.61
2018-09-03T01:47:53.262Z,94.49
2018-09-03T01:50:21.641Z,94.47
2018-09-03T01:52:50.051Z,94.58
2018-09-03T01:55:18.564Z,94.02
2018-09-03T01:57:46.986Z,93.70
2018-09-03T02:00:15.368Z,93.69
2018-09-03T02:02:44.012Z,93.31
2018-09-03T02:05:12.434Z,93.15
2018-09-03T02:07:40.857Z,93.79
2018-09-03T02:10:09.352Z,93.67
2018-09-03T02:12:37.884Z,93.84
2018-09-03T02:15:06.528Z,94.11
2018-09-03T02:17:35.380Z,93.71
2018-09-03T02:20:03.870Z,93.50
2018-09-03T02:22:32.512Z,93.01
2018-09-03T02:25:01.471Z,93.51
2018-09-03T02:27:29.958Z,93.30
2018-09-03T02:29:58.344Z,93.18
2018-09-03T02:32:26.778Z,93.53
2018-09-03T02:34:55.188Z,93.63
2018-09-03T02:37:23.668Z,93.84
2018-09-03T02:39:52.196Z,93.83
2018-09-03T02:42:20.985Z,93.89
2018-09-03T02:44:49.462Z,94.08
2018-09-03T02:47:17.950Z,94.20
2018-09-03T02:49:46.433Z,93.85
2018-09-03T02:52:14.920Z,93.82
2018-09-03T02:54:43.372Z,93.36
2018-09-03T02:57:11.876Z,93.70
2018-09-03T02:59:40.366Z,93.93
2018-09-03T03:02:08.792Z,93.45
2018-09-03T03:04:37.292Z,93.43
2018-09-03T03:07:05.752Z,93.81
2018-09-03T03:09:34.238Z,93.87
2018-09-03T03:12:02.622Z,93.70
2018-09-03T03:14:31.114Z,93.79
2018-09-03T03:16:59.500Z,93.77
2018-09-03T03:19:28.622Z,93.80
2018-09-03T03:21:58.788Z,93.47
2018-09-03T03:24:27.243Z,93.78
2018-09-03T03:26:55.700Z,94.65
2018-09-03T03:29:24.211Z,94.62
2018-09-03T03:31:52.710Z,94.74
2018-09-03T03:34:21.218Z,94.53
2018-09-03T03:36:49.724Z,94.26
2018-09-03T03:39:18.267Z,94.21
2018-09-03T03:41:46.748Z,94.32
2018-09-03T03:44:15.211Z,93.83
2018-09-03T03:46:43.629Z,93.99
2018-09-03T03:49:12.108Z,94.21
2018-09-03T03:51:40.608Z,93.54
2018-09-03T03:54:09.093Z,94.21
2018-09-03T03:56:37.618Z,94.26
2018-09-03T03:59:06.180Z,94.43
2018-09-03T04:01:34.737Z,94.25
2018-09-03T04:04:03.219Z,93.93
2018-09-03T04:06:31.769Z,94.44
2018-09-03T04:09:00.494Z,94.20
2018-09-03T04:11:29.023Z,94.22
2018-09-03T04:13:57.602Z,94.86
2018-09-03T04:16:26.078Z,94.37
2018-09-03T04:18:54.538Z,94.84
2018-09-03T04:21:22.895Z,94.44
2018-09-03T04:23:51.315Z,93.79
2018-09-03T04:26:19.758Z,93.92
2018-09-03T04:28:48.377Z,94.62
2018-09-03T04:31:16.794Z,94.64
2018-09-03T04:33:45.277Z,95.33
2018-09-03T04:36:13.736Z,94.79
2018-09-03T04:38:42.291Z,95.21
2018-09-03T04:41:10.689Z,94.59
2018-09-03T04:43:44.292Z,94.80
2018-09-03T04:46:12.756Z,95.36
2018-09-03T04:48:41.223Z,94.89
2018-09-03T04:51:09.884Z,95.65
2018-09-03T04:53:38.424Z,95.61
2018-09-03T04:56:06.932Z,95.36
2018-09-03T04:58:35.443Z,95.73
2018-09-03T05:01:03.962Z,95.48
2018-09-03T05:03:32.404Z,95.46
2018-09-03T05:06:01.004Z,95.72
2018-09-03T05:08:29.622Z,94.96
2018-09-03T05:10:58.146Z,94.87
2018-09-03T05:13:27.107Z,94.90
2018-09-03T05:15:55.739Z,94.81
2018-09-03T05:18:24.246Z,94.90
2018-09-03T05:20:52.731Z,95.51
2018-09-03T05:23:21.222Z,95.51
2018-09-03T05:25:49.685Z,95.68
2018-09-03T05:28:18.112Z,95.09
2018-09-03T05:30:46.594Z,94.97
2018-09-03T05:33:15.167Z,95.16
2018-09-03T05:35:43.596Z,95.16
2018-09-03T05:38:13.499Z,94.77
2018-09-03T05:40:42.901Z,94.91
2018-09-03T05:43:11.528Z,95.09
2018-09-03T05:45:40.170Z,95.49
2018-09-03T05:48:08.760Z,95.11
2018-09-03T05:50:37.556Z,95.26
2018-09-03T05:53:06.427Z,95.41
2018-09-03T05:55:35.328Z,95.26
2018-09-03T05:58:04.107Z,95.96
2018-09-03T06:00:32.906Z,95.88
2018-09-03T06:03:01.457Z,96.00
2018-09-03T06:05:30.108Z,95.25
2018-09-03T06:07:58.554Z,95.23
2018-09-03T06:10:26.967Z,94.73
2018-09-03T06:12:56.218Z,94.89
2018-09-03T06:15:24.777Z,94.40
2018-09-03T06:17:53.381Z,94.87
2018-09-03T06:20:21.883Z,94.90
2018-09-03T06:22:50.501Z,94.86
2018-09-03T06:25:19.066Z,94.15
2018-09-03T06:27:47.607Z,94.42
2018-09-03T06:30:16.085Z,94.27
2018-09-03T06:32:44.721Z,94.47
2018-09-03T06:35:13.110Z,94.30
2018-09-03T06:37:42.274Z,94.63
2018-09-03T06:40:10.947Z,94.75
2018-09-03T06:42:39.720Z,94.71
2018-09-03T06:45:08.328Z,94.49
2018-09-03T06:47:36.896Z,94.14
2018-09-03T06:50:05.967Z,93.80
2018-09-03T06:52:35.135Z,94.23
2018-09-03T06:55:03.567Z,93.94
2018-09-03T06:57:33.698Z,94.33
2018-09-03T07:00:02.257Z,94.77
2018-09-03T07:02:30.792Z,94.66
2018-09-03T07:04:59.327Z,94.82
2018-09-03T07:07:28.076Z,94.13
2018-09-03T07:09:56.545Z,95.09
2018-09-03T07:12:25.109Z,94.75
2018-09-03T07:14:54.472Z,95.12
2018-09-03T07:17:22.875Z,94.98
2018-09-03T07:19:51.335Z,95.18
2018-09-03T07:22:19.921Z,95.36
2018-09-03T07:24:49.343Z,95.32
2018-09-03T07:27:18.806Z,96.22
2018-09-03T07:29:47.985Z,95.66
2018-09-03T07:32:17.910Z,96.23
2018-09-03T07:34:46.753Z,96.48
2018-09-03T07:37:15.223Z,96.58
2018-09-03T07:39:45.327Z,96.13
2018-09-03T07:42:17.125Z,96.53
2018-09-03T07:44:45.871Z,96.36
2018-09-03T07:47:14.373Z,96.07
2018-09-03T07:49:42.860Z,95.69
2018-09-03T07:52:11.589Z,95.58
2018-09-03T07:54:40.495Z,96.29
2018-09-03T07:57:09.012Z,95.85
2018-09-03T07:59:37.400Z,95.38
2018-09-03T08:02:06.112Z,95.98
2018-09-03T08:04:34.604Z,95.33
2018-09-03T08:07:03.146Z,95.62
2018-09-03T08:09:31.761Z,95.23
2018-09-03T08:12:00.452Z,95.34
2018-09-03T08:14:29.013Z,95.01
2018-09-03T08:16:57.501Z,95.11
2018-09-03T08:19:26.000Z,94.06
2018-09-03T08:21:54.712Z,94.38
2018-09-03T08:24:23.849Z,94.16
2018-09-03T08:26:53.262Z,94.19
2018-09-03T08:29:23.461Z,93.93
2018-09-03T08:31:52.499Z,93.37
2018-09-03T08:34:21.175Z,93.80
2018-09-03T08:36:49.876Z,93.41
2018-09-03T08:39:18.912Z,92.68
2018-09-03T08:41:47.550Z,91.99
2018-09-03T08:44:16.038Z,91.93
2018-09-03T08:46:44.466Z,91.04
2018-09-03T08:49:12.930Z,91.10
2018-09-03T08:51:41.453Z,91.17
2018-09-03T08:54:09.912Z,91.64
2018-09-03T08:56:39.501Z,90.73
2018-09-03T08:59:08.312Z,90.95
2018-09-03T09:01:37.045Z,90.67
2018-09-03T09:04:05.761Z,90.38
2018-09-03T09:06:34.565Z,90.68
2018-09-03T09:09:03.389Z,90.82
2018-09-03T09:11:32.349Z,89.55
2018-09-03T09:14:00.897Z,89.87
2018-09-03T09:16:29.706Z,90.04
2018-09-03T09:18:58.112Z,89.36
2018-09-03T09:21:26.568Z,88.08
2018-09-03T09:23:54.989Z,87.22
2018-09-03T09:26:23.564Z,87.46
2018-09-03T09:28:52.132Z,87.06
2018-09-03T09:31:20.629Z,87.43
2018-09-03T09:33:49.260Z,86.72
2018-09-03T09:36:17.798Z,87.28
2018-09-03T09:38:46.522Z,87.60
2018-09-03T09:41:14.987Z,86.90
2018-09-03T09:43:43.496Z,87.49
2018-09-03T09:46:11.964Z,87.15
2018-09-03T09:48:40.474Z,86.28
2018-09-03T09:51:08.996Z,87.34
2018-09-03T09:53:37.806Z,86.38
2018-09-03T09:56:06.680Z,86.65
2018-09-03T09:58:35.246Z,86.83
2018-09-03T10:01:09.122Z,86.56
2018-09-03T10:03:37.549Z,86.13
2018-09-03T10:06:06.138Z,85.55
2018-09-03T10:08:34.557Z,84.78
2018-09-03T10:11:04.385Z,84.95
2018-09-03T10:13:33.614Z,85.14
2018-09-03T10:16:08.076Z,85.10
2018-09-03T10:18:37.403Z,84.76
2018-09-03T10:21:06.340Z,84.83
2018-09-03T10:23:34.835Z,84.74
2018-09-03T10:26:03.242Z,84.95
2018-09-03T10:28:32.383Z,83.79
2018-09-03T10:31:00.897Z,83.85
2018-09-03T10:33:29.432Z,83.28
2018-09-03T10:35:57.934Z,83.04
2018-09-03T10:38:26.547Z,82.15
2018-09-03T10:40:55.094Z,81.25
2018-09-03T10:43:23.739Z,79.34
2018-09-03T10:45:52.791Z,78.34
2018-09-03T10:48:21.331Z,77.32
2018-09-03T10:50:50.521Z,76.88
2018-09-03T10:53:19.864Z,75.97
2018-09-03T10:55:49.583Z,74.33
2018-09-03T10:58:18.038Z,73.74
2018-09-03T11:00:46.572Z,73.45
2018-09-03T11:03:15.111Z,74.21
2018-09-03T11:05:43.593Z,73.49
2018-09-03T11:08:12.114Z,70.90
2018-09-03T11:10:40.620Z,68.95
2018-09-03T11:13:09.386Z,68.29
2018-09-03T11:15:38.240Z,66.19
2018-09-03T11:18:06.915Z,65.89
2018-09-03T11:20:35.517Z,66.10
2018-09-03T11:23:04.343Z,67.94
2018-09-03T11:25:33.202Z,69.03
2018-09-03T11:28:01.668Z,70.92
2018-09-03T11:30:29.747Z,71.76
2018-09-03T11:32:59.420Z,72.73
2018-09-03T11:35:27.345Z,73.70
2018-09-03T11:37:55.366Z,74.27
2018-09-03T11:40:23.946Z,75.37
2018-09-03T11:42:52.272Z,75.56
2018-09-03T11:45:21.160Z,76.11
2018-09-03T11:47:49.287Z,77.04
2018-09-03T11:50:17.783Z,77.05
2018-09-03T11:52:45.502Z,76.84
2018-09-03T11:55:17.713Z,77.33
2018-09-03T11:57:45.745Z,76.77
2018-09-03T12:00:17.671Z,77.52
2018-09-03T12:02:45.515Z,77.07
2018-09-03T12:05:13.570Z,76.71
2018-09-03T12:07:42.104Z,77.08
2018-09-03T12:10:09.938Z,77.61
2018-09-03T12:12:38.040Z,77.66
2018-09-03T12:16:09.874Z,78.24
2018-09-03T12:18:39.408Z,78.10
2018-09-03T12:21:07.332Z,76.75
2018-09-03T12:23:35.060Z,75.85
2018-09-03T12:26:03.211Z,75.74
2018-09-03T12:28:31.251Z,76.08
2018-09-03T12:30:59.015Z,77.20
2018-09-03T12:33:26.946Z,77.37
2018-09-03T12:35:54.949Z,77.83
2018-09-03T12:38:22.971Z,78.30
2018-09-03T12:40:50.887Z,78.06
2018-09-03T12:43:20.099Z,77.00
2018-09-03T12:45:53.450Z,77.01
2018-09-03T12:48:22.080Z,77.38
2018-09-03T12:50:51.144Z,77.49
2018-09-03T12:53:18.929Z,77.72
2018-09-03T12:55:46.876Z,78.21
2018-09-03T12:58:14.555Z,78.56
2018-09-03T13:00:42.310Z,78.86
2018-09-03T13:03:10.354Z,78.43
2018-09-03T13:05:37.976Z,78.69
2018-09-03T13:08:05.656Z,78.34
2018-09-03T13:10:33.340Z,78.68
2018-09-03T13:13:01.842Z,78.33
2018-09-03T13:15:29.671Z,78.32
2018-09-03T13:17:57.367Z,77.48
2018-09-03T13:22:59.534Z,77.21
2018-09-03T13:25:34.144Z,76.70
2018-09-03T13:28:02.025Z,75.86
2018-09-03T13:30:29.745Z,74.67
2018-09-03T13:32:57.510Z,75.10
2018-09-03T13:35:26.564Z,74.37
2018-09-03T13:40:39.294Z,74.50
2018-09-03T13:43:07.104Z,74.33
2018-09-03T13:45:35.900Z,74.70
2018-09-03T13:48:14.804Z,74.80
2018-09-03T13:50:42.549Z,75.09
2018-09-03T13:53:10.361Z,74.85
2018-09-03T13:55:38.109Z,74.83
2018-09-03T13:58:06.267Z,74.91
2018-09-03T14:00:33.984Z,75.01
2018-09-03T14:03:01.813Z,75.23
2018-09-03T14:05:30.394Z,75.91
2018-09-03T14:07:58.223Z,74.82
2018-09-03T14:10:26.040Z,74.48
2018-09-03T14:12:53.810Z,74.55
2018-09-03T14:15:21.796Z,74.69
2018-09-03T14:17:50.188Z,73.89
2018-09-03T14:20:18.828Z,73.63
2018-09-03T14:22:46.971Z,72.98
2018-09-03T14:25:16.869Z,73.37
2018-09-03T14:27:44.516Z,73.16
2018-09-03T14:30:13.934Z,73.07
2018-09-03T14:32:41.841Z,73.22
2018-09-03T14:35:09.504Z,73.34
2018-09-03T14:37:37.192Z,73.40
2018-09-03T14:40:04.886Z,72.71
2018-09-03T14:42:33.564Z,72.52
2018-09-03T14:45:01.335Z,73.15
2018-09-03T14:47:29.044Z,74.11
2018-09-03T14:49:57.235Z,73.54
2018-09-03T14:52:25.035Z,73.90
2018-09-03T14:54:52.860Z,73.09
2018-09-03T14:57:20.586Z,74.19
2018-09-03T14:59:48.329Z,74.26
2018-09-03T15:02:16.094Z,74.37
2018-09-03T15:04:57.477Z,75.28
2018-09-03T15:07:25.715Z,74.31
2018-09-03T15:09:53.606Z,74.22
2018-09-03T15:12:21.459Z,73.84
2018-09-03T15:14:49.390Z,74.25
2018-09-03T15:17:17.264Z,73.92
2018-09-03T15:19:45.983Z,73.86
2018-09-03T15:22:14.291Z,73.98
2018-09-03T15:24:41.960Z,74.05
2018-09-03T15:27:09.753Z,73.68
2018-09-03T15:29:38.585Z,73.24
2018-09-03T15:32:06.565Z,72.92
2018-09-03T15:34:34.660Z,73.28
2018-09-03T15:37:02.617Z,73.14
2018-09-03T15:39:31.167Z,72.66
2018-09-03T15:42:08.401Z,72.00
2018-09-03T15:44:36.277Z,71.54
2018-09-03T15:47:04.257Z,71.78
2018-09-03T15:49:33.107Z,71.90
2018-09-03T15:52:03.140Z,71.97
2018-09-03T15:54:31.021Z,71.20
2018-09-03T15:56:58.980Z,70.37
2018-09-03T15:59:26.953Z,70.75
2018-09-03T16:01:55.883Z,70.93
2018-09-03T16:04:23.854Z,71.57
2018-09-03T16:06:57.836Z,71.19
2018-09-03T16:09:25.719Z,70.93
2018-09-03T16:11:53.562Z,72.09
2018-09-03T16:14:21.413Z,72.49
2018-09-03T16:16:51.234Z,72.03
2018-09-03T16:19:19.111Z,72.16
2018-09-03T16:21:46.982Z,72.82
2018-09-03T16:24:14.931Z,72.55
2018-09-03T16:26:42.820Z,72.00
2018-09-03T16:29:11.049Z,71.80
2018-09-03T16:31:39.186Z,71.91
2018-09-03T16:34:06.975Z,71.60
2018-09-03T16:36:34.646Z,71.96
2018-09-03T16:39:02.413Z,71.65
2018-09-03T16:41:30.122Z,72.12
2018-09-03T16:43:58.014Z,71.60
2018-09-03T16:46:25.759Z,71.92
2018-09-03T16:48:53.557Z,72.01
2018-09-03T16:51:21.203Z,72.04
2018-09-03T16:53:48.891Z,72.55
2018-09-03T16:56:16.630Z,72.00
2018-09-03T16:58:44.375Z,71.56
2018-09-03T17:01:12.338Z,72.17
2018-09-03T17:03:41.205Z,72.19
2018-09-03T17:06:09.176Z,72.39
2018-09-03T17:08:36.867Z,72.33
2018-09-03T17:11:04.774Z,72.91
2018-09-03T17:13:32.705Z,71.72
2018-09-03T17:16:00.499Z,73.11
2018-09-03T17:18:28.271Z,73.29
2018-09-03T17:20:56.101Z,73.52
2018-09-03T17:23:23.873Z,74.10
2018-09-03T17:26:02.397Z,74.79
2018-09-03T17:28:30.164Z,74.97
2018-09-03T17:30:57.865Z,75.40
2018-09-03T17:33:25.596Z,75.40
2018-09-03T17:35:53.330Z,75.53
2018-09-03T17:38:21.328Z,75.53
2018-09-03T17:40:49.076Z,75.31
2018-09-03T17:43:16.816Z,75.88
2018-09-03T17:45:44.811Z,75.57
2018-09-03T17:48:12.726Z,76.24
2018-09-03T17:50:42.128Z,75.83
2018-09-03T17:53:10.133Z,76.48
2018-09-03T17:55:38.013Z,76.67
2018-09-03T17:58:05.838Z,76.86
2018-09-03T18:00:33.989Z,76.95
2018-09-03T18:03:02.069Z,76.69
2018-09-03T18:05:29.776Z,77.30
2018-09-03T18:07:57.534Z,77.41
2018-09-03T18:10:25.380Z,77.36
2018-09-03T18:12:53.270Z,77.37
2018-09-03T18:15:21.107Z,77.78
2018-09-03T18:17:49.133Z,77.64
2018-09-03T18:20:18.076Z,77.59
2018-09-03T18:22:45.936Z,77.93
2018-09-03T18:25:13.683Z,77.93
2018-09-03T18:27:41.429Z,78.16
2018-09-03T18:30:09.213Z,78.66
2018-09-03T18:32:37.065Z,78.93
2018-09-03T18:35:04.964Z,78.90
2018-09-03T18:37:32.889Z,78.77
2018-09-03T18:40:00.698Z,78.52
2018-09-03T18:42:28.464Z,79.25
2018-09-03T18:44:56.200Z,78.82
2018-09-03T18:47:23.866Z,79.01
2018-09-03T18:49:51.718Z,79.14
2018-09-03T18:52:19.473Z,79.18
2018-09-03T18:54:47.232Z,79.92
2018-09-03T18:57:15.052Z,79.93
2018-09-03T18:59:42.995Z,79.91
2018-09-03T19:02:10.899Z,80.16
2018-09-03T19:04:38.955Z,80.48
2018-09-03T19:07:06.622Z,80.64
2018-09-03T19:09:34.383Z,80.80
2018-09-03T19:12:02.534Z,80.92
2018-09-03T19:14:30.445Z,81.26
2018-09-03T19:16:58.243Z,81.12
2018-09-03T19:19:26.218Z,81.48
2018-09-03T19:21:54.085Z,81.80
2018-09-03T19:24:21.902Z,81.75
2018-09-03T19:26:50.589Z,82.49
2018-09-03T19:29:18.514Z,82.28
2018-09-03T19:31:46.635Z,82.48
2018-09-03T19:34:14.428Z,82.40
2018-09-03T19:36:42.435Z,83.07
2018-09-03T19:39:10.230Z,82.41
2018-09-03T19:41:38.148Z,82.91
2018-09-03T19:44:05.860Z,82.88
2018-09-03T19:46:33.478Z,82.50
2018-09-03T19:49:01.420Z,82.97
2018-09-03T19:51:29.295Z,82.92
2018-09-03T19:53:57.330Z,82.92
2018-09-03T19:56:25.025Z,83.28
2018-09-03T19:58:52.814Z,83.18
2018-09-03T20:01:20.605Z,83.22
2018-09-03T20:03:48.515Z,83.06
2018-09-03T20:06:16.251Z,82.82
2018-09-03T20:08:44.152Z,83.19
2018-09-03T20:11:12.090Z,83.34
2018-09-03T20:13:39.890Z,82.84
2018-09-03T20:16:07.592Z,83.02
2018-09-03T20:18:35.502Z,83.15
2018-09-03T20:21:03.296Z,83.27
2018-09-03T20:23:31.232Z,83.35
2018-09-03T20:25:59.846Z,84.03
2018-09-03T20:28:28.006Z,83.89
2018-09-03T20:30:56.292Z,83.82
2018-09-03T20:33:24.038Z,84.01
2018-09-03T20:35:51.857Z,84.04
2018-09-03T20:38:19.988Z,84.00
2018-09-03T20:40:47.790Z,83.48
2018-09-03T20:43:15.710Z,83.59
2018-09-03T20:45:43.574Z,83.94
2018-09-03T20:48:11.667Z,84.08
2018-09-03T20:50:40.246Z,84.23
2018-09-03T20:53:08.087Z,83.54
2018-09-03T20:55:36.003Z,83.70
2018-09-03T20:58:05.014Z,83.64
2018-09-03T21:00:32.899Z,84.17
2018-09-03T21:03:00.531Z,84.25
2018-09-03T21:05:28.263Z,83.84
2018-09-03T21:07:56.063Z,83.70
2018-09-03T21:10:23.869Z,84.63
2018-09-03T21:12:51.503Z,84.04
2018-09-03T21:15:19.162Z,84.36
2018-09-03T21:17:46.826Z,84.62
2018-09-03T21:20:14.677Z,84.83
2018-09-03T21:22:42.409Z,84.23
2018-09-03T21:25:11.393Z,84.53
2018-09-03T21:27:39.371Z,84.82
2018-09-03T21:30:07.657Z,84.16
2018-09-03T21:32:35.584Z,84.40
2018-09-03T21:35:03.766Z,84.24
2018-09-03T21:37:32.235Z,84.30
2018-09-03T21:40:00.174Z,83.40
2018-09-03T21:42:27.964Z,83.50
2018-09-03T21:44:55.865Z,83.23
2018-09-03T21:47:23.720Z,82.84
2018-09-03T21:49:51.496Z,83.19
2018-09-03T21:52:20.334Z,83.45
2018-09-03T21:54:49.304Z,82.23
2018-09-03T21:57:16.986Z,82.47
2018-09-03T21:59:44.739Z,82.26
2018-09-03T22:02:21.780Z,82.08
2018-09-03T22:04:49.540Z,81.59
2018-09-03T22:07:17.348Z,81.92
2018-09-03T22:09:45.162Z,81.78
2018-09-03T22:12:12.970Z,82.21
2018-09-03T22:14:40.655Z,82.15
2018-09-03T22:17:08.352Z,82.16
2018-09-03T22:19:36.291Z,81.63
2018-09-03T22:22:09.123Z,81.53
2018-09-03T22:24:36.727Z,81.63
2018-09-03T22:27:04.714Z,81.66
2018-09-03T22:29:32.414Z,81.66
2018-09-03T22:32:00.415Z,82.11
2018-09-03T22:34:28.021Z,81.59
2018-09-03T22:36:55.788Z,81.33
2018-09-03T22:39:23.580Z,80.66
2018-09-03T22:41:51.310Z,81.11
2018-09-03T22:44:19.005Z,80.73
2018-09-03T22:46:46.712Z,81.36
2018-09-03T22:49:14.380Z,81.31
2018-09-03T22:51:42.072Z,81.40
2018-09-03T22:54:10.218Z,81.62
2018-09-03T22:56:37.855Z,82.28
2018-09-03T22:59:05.516Z,81.92
2018-09-03T23:01:33.201Z,82.14
2018-09-03T23:04:00.974Z,82.45
2018-09-03T23:06:28.625Z,82.98
2018-09-03T23:08:56.352Z,82.60
2018-09-03T23:11:24.139Z,82.51
2018-09-03T23:13:51.875Z,82.57
2018-09-03T23:16:19.520Z,82.85
2018-09-03T23:18:47.240Z,83.06
2018-09-03T23:21:15.035Z,83.59
2018-09-03T23:23:42.984Z,83.16
2018-09-03T23:26:10.637Z,82.79
2018-09-03T23:28:38.391Z,82.87
2018-09-03T23:31:06.065Z,82.70
2018-09-03T23:33:33.914Z,83.14
2018-09-03T23:36:01.627Z,82.60
2018-09-03T23:38:29.392Z,83.13
2018-09-03T23:40:57.068Z,83.25
2018-09-03T23:43:24.758Z,83.36
2018-09-03T23:45:52.437Z,82.94
2018-09-03T23:48:20.052Z,83.20
2018-09-03T23:50:47.814Z,83.64
2018-09-03T23:53:15.521Z,83.32
2018-09-03T23:55:43.230Z,83.45
2018-09-03T23:58:10.947Z,84.06
